Latest Weather Observations for Hillarys Point Boat Harbour

IDW60801

Issued at 2:04 pm WST Wednesday 22 February 2017 (issued every 30 minutes, with the page automatically refreshed every 10 minutes)

About weather observations | Map of weather stations | Latest weather observations for WA | Other Formats
Station Details ID: 009265 Name: HILLARYS BOAT HARBOUR NTC AWS Lat: -31.83 Lon: 115.74 Height: 0.0 m
Data from the previous 72 hours. | See also: Recent months for locations in Western Australia
Date/Time
WST
Temp
°C
App
Temp
°C
Dew
Point
°C
Rel
Hum
%
Delta-T
°C
Wind Press
QNH
hPa
Press
MSL
hPa
Rain since
9am
mm
Dir  Spd
km/h
Gust
km/h
Spd
kts
Gust
kts
22/02:00pm 20.1 - - - - SSW 17 28 9 15 1020.2 1020.2 -
22/01:30pm 19.8 - - - - SW 17 26 9 14 1020.4 1020.4 -
22/01:00pm 20.1 - - - - SW 15 26 8 14 1020.5 1020.5 -
22/12:30pm 19.9 - - - - SW 13 24 7 13 1020.6 1020.6 -
22/12:00pm 19.4 - - - - SW 13 19 7 10 1020.7 1020.7 -
22/11:30am 19.6 - - - - SW 13 19 7 10 1021.2 1021.2 -
22/11:00am 19.7 - - - - SW 11 17 6 9 1021.6 1021.6 -
22/10:30am 19.0 - - - - SSW 7 13 4 7 1021.7 1021.7 -
22/10:00am 19.4 - - - - SE 7 17 4 9 1021.7 1021.7 -
22/09:30am 18.4 - - - - E 6 13 3 7 1021.6 1021.6 -
22/09:00am 17.7 - - - - E 7 19 4 10 1021.6 1021.6 -
22/08:30am 17.2 - - - - ENE 9 17 5 9 1021.4 1021.4 -
22/08:00am 16.6 - - - - ENE 9 17 5 9 1021.4 1021.4 -
22/07:30am 15.6 - - - - ENE 9 15 5 8 1021.0 1021.0 -
22/07:00am 14.6 - - - - ENE 7 13 4 7 1020.8 1020.8 -
22/06:30am 14.0 - - - - ENE 7 13 4 7 1020.3 1020.3 -
22/06:00am 13.7 - - - - ENE 7 11 4 6 1020.0 1020.0 -
22/05:30am 13.9 - - - - ENE 7 11 4 6 1019.5 1019.5 -
22/05:00am 14.0 - - - - ENE 7 11 4 6 1019.2 1019.2 -
22/04:30am 14.4 - - - - ENE 6 9 3 5 1019.2 1019.2 -
22/04:00am 14.9 - - - - E 4 11 2 6 1019.0 1019.0 -
22/03:30am 15.2 - - - - E 4 9 2 5 1018.9 1018.9 -
22/03:00am 15.5 - - - - E 2 9 1 5 1018.7 1018.7 -
22/02:30am 15.8 - - - - SE 4 11 2 6 1018.6 1018.6 -
22/02:00am 16.3 - - - - SSE 7 15 4 8 1018.5 1018.5 -
22/01:30am 16.6 - - - - SSE 7 15 4 8 1018.5 1018.5 -
22/01:00am 16.8 - - - - SSE 9 15 5 8 1018.5 1018.5 -
22/12:30am 17.1 - - - - SSE 9 19 5 10 1018.7 1018.7 -
22/12:00am 17.3 - - - - SE 6 13 3 7 1018.4 1018.4 -
 
Date/Time
WST
Temp
°C
App
Temp
°C
Dew
Point
°C
Rel
Hum
%
Delta-T
°C
Wind Press
QNH
hPa
Press
MSL
hPa
Rain since
9am
mm
Dir  Spd
km/h
Gust
km/h
Spd
kts
Gust
kts
21/11:30pm 18.0 - - - - SSE 11 20 6 11 1018.5 1018.5 -
21/11:00pm 18.3 - - - - SSE 7 19 4 10 1018.5 1018.5 -
21/10:30pm 18.7 - - - - SSE 7 17 4 9 1018.4 1018.4 -
21/10:00pm 18.8 - - - - SSW 13 28 7 15 1018.4 1018.4 -
21/09:30pm 18.8 - - - - SSW 13 28 7 15 1018.3 1018.3 -
21/09:00pm 18.8 - - - - SSW 11 22 6 12 1018.1 1018.1 -
21/08:30pm 18.7 - - - - SSW 13 30 7 16 1018.0 1018.0 -
21/08:00pm 18.6 - - - - SSW 17 33 9 18 1017.6 1017.6 -
21/07:30pm 18.8 - - - - SSW 13 28 7 15 1017.2 1017.2 -
21/07:00pm 18.8 - - - - SSW 19 39 10 21 1017.0 1017.0 -
21/06:30pm 19.1 - - - - SSW 17 33 9 18 1016.5 1016.5 -
21/06:00pm 19.0 - - - - SSW 19 32 10 17 1016.2 1016.2 -
21/05:30pm 19.2 - - - - SSW 17 33 9 18 1015.8 1015.8 -
21/05:00pm 19.3 - - - - SSW 19 32 10 17 1015.7 1015.7 -
21/04:30pm 19.9 - - - - SSW 19 33 10 18 1015.5 1015.5 -
21/04:00pm 19.7 - - - - SSW 19 41 10 22 1015.3 1015.3 -
21/03:30pm 19.7 - - - - SSW 19 37 10 20 1015.4 1015.4 -
21/03:00pm 19.4 - - - - SSW 19 32 10 17 1015.5 1015.5 -
21/02:30pm 19.5 - - - - SSW 19 33 10 18 1015.5 1015.5 -
21/02:00pm 19.8 - - - - SW 22 37 12 20 1015.5 1015.5 -
21/01:30pm 19.8 - - - - SW 20 33 11 18 1015.5 1015.5 -
21/01:00pm 19.7 - - - - SSW 19 33 10 18 1015.3 1015.3 -
21/12:30pm 19.4 - - - - SSW 19 35 10 19 1015.1 1015.1 -
21/12:00pm 20.0 - - - - SSW 19 33 10 18 1015.2 1015.2 -
21/11:30am 20.0 - - - - SW 19 32 10 17 1015.2 1015.2 -
21/11:00am 19.7 - - - - SW 22 39 12 21 1015.0 1015.0 -
21/10:30am 19.6 - - - - SW 22 39 12 21 1015.1 1015.1 -
21/10:00am 19.7 - - - - SW 26 41 14 22 1015.0 1015.0 -
21/09:30am 19.6 - - - - SW 26 41 14 22 1014.6 1014.6 -
21/09:20am 19.5 - - - - SW 28 48 15 26 1014.5 1014.5 -
21/09:00am 19.5 - - - - SW 24 46 13 25 1014.1 1014.1 -
21/08:30am 19.8 - - - - SW 24 39 13 21 1013.5 1013.5 -
21/08:00am 19.7 - - - - SW 30 43 16 23 1013.0 1012.9 -
21/07:30am 18.9 - - - - SW 28 43 15 23 1012.7 1012.6 -
21/07:05am 18.6 - - - - SW 28 46 15 25 1012.5 1012.4 -
21/07:00am 18.7 - - - - SW 30 43 16 23 1012.4 1012.3 -
21/06:42am 18.9 - - - - SW 33 54 18 29 1012.1 1012.0 -
21/06:30am 19.4 - - - - WSW 33 43 18 23 1012.0 1011.9 -
21/06:00am 20.1 - - - - WSW 24 37 13 20 1011.7 1011.6 -
21/05:30am 19.7 - - - - W 24 37 13 20 1011.5 1011.4 -
21/05:00am 19.9 - - - - WSW 22 32 12 17 1011.3 1011.2 -
21/04:30am 19.7 - - - - W 19 30 10 16 1011.2 1011.1 -
21/04:00am 19.6 - - - - W 19 28 10 15 1011.0 1010.9 -
21/03:30am 19.6 - - - - WSW 20 33 11 18 1011.1 1011.0 -
21/03:00am 19.5 - - - - WSW 22 32 12 17 1011.4 1011.3 -
21/02:30am 19.8 - - - - WSW 22 30 12 16 1011.5 1011.4 -
21/02:00am 19.7 - - - - WSW 26 35 14 19 1011.8 1011.7 -
21/01:30am 19.0 - - - - SW 22 32 12 17 1012.0 1011.9 -
21/01:00am 19.7 - - - - SW 22 28 12 15 1012.0 1011.9 -
21/12:30am 19.7 - - - - SW 22 35 12 19 1012.3 1012.2 -
21/12:00am 19.9 - - - - WSW 26 37 14 20 1012.5 1012.4 -
 
Date/Time
WST
Temp
°C
App
Temp
°C
Dew
Point
°C
Rel
Hum
%
Delta-T
°C
Wind Press
QNH
hPa
Press
MSL
hPa
Rain since
9am
mm
Dir  Spd
km/h
Gust
km/h
Spd
kts
Gust
kts
20/11:30pm 20.0 - - - - SW 20 30 11 16 1012.6 1012.5 -
20/11:00pm 19.9 - - - - SW 19 26 10 14 1012.6 1012.5 -
20/10:30pm 20.1 - - - - SW 15 28 8 15 1012.7 1012.6 -
20/10:00pm 20.1 - - - - SW 19 28 10 15 1013.1 1013.0 -
20/09:30pm 20.4 - - - - SW 20 32 11 17 1013.3 1013.3 -
20/09:00pm 20.5 - - - - SW 20 32 11 17 1013.2 1013.1 -
20/08:30pm 20.5 - - - - SW 17 30 9 16 1012.9 1012.8 -
20/08:00pm 20.4 - - - - SSW 17 30 9 16 1012.4 1012.3 -
20/07:30pm 20.4 - - - - SSW 15 24 8 13 1011.8 1011.7 -
20/07:00pm 20.6 - - - - SSW 15 24 8 13 1011.5 1011.4 -
20/06:30pm 20.9 - - - - SW 17 30 9 16 1011.2 1011.1 -
20/06:00pm 21.0 - - - - SW 20 33 11 18 1010.9 1010.8 -
20/05:30pm 21.1 - - - - SW 26 37 14 20 1010.8 1010.7 -
20/05:00pm 21.2 - - - - SW 20 32 11 17 1010.7 1010.6 -
20/04:30pm 21.3 - - - - SW 17 28 9 15 1010.8 1010.7 -
20/04:00pm 21.2 - - - - SW 17 28 9 15 1010.6 1010.5 -
20/03:30pm 21.2 - - - - SW 17 30 9 16 1010.7 1010.6 -
20/03:00pm 21.1 - - - - SSW 17 30 9 16 1010.9 1010.8 -
20/02:30pm 21.1 - - - - SW 19 32 10 17 1011.2 1011.1 -
20/02:00pm 21.1 - - - - SW 17 28 9 15 1011.6 1011.5 -
20/01:30pm 21.4 - - - - SW 17 28 9 15 1012.3 1012.2 -
20/01:00pm 21.3 - - - - SW 15 26 8 14 1012.4 1012.3 -
20/12:30pm 21.4 - - - - SSW 15 28 8 15 1012.6 1012.5 -
20/12:00pm 21.0 - - - - SSW 17 30 9 16 1012.7 1012.6 -
20/11:30am 21.1 - - - - SSW 17 28 9 15 1012.9 1012.8 -
20/11:00am 21.0 - - - - SSW 17 30 9 16 1013.1 1013.0 -
20/10:30am 21.1 - - - - SSW 15 30 8 16 1013.3 1013.3 -
20/10:00am 21.4 - - - - SSW 17 24 9 13 1013.3 1013.3 -
20/09:30am 21.5 - - - - SSW 11 20 6 11 1013.3 1013.3 -
20/09:00am 20.8 - - - - SSW 11 20 6 11 1013.3 1013.3 -
20/08:30am 20.7 - - - - SSW 11 24 6 13 1013.0 1012.9 -
20/08:00am 20.5 - - - - SSW 11 24 6 13 1012.7 1012.6 -
20/07:30am 20.8 - - - - SSW 11 24 6 13 1012.7 1012.6 -
20/07:00am 20.7 - - - - SSW 11 24 6 13 1012.7 1012.6 -
20/06:30am 20.8 - - - - SSW 17 32 9 17 1012.4 1012.3 -
20/06:00am 20.9 - - - - SSW 11 26 6 14 1012.3 1012.2 -
20/05:30am 20.9 - - - - SSW 17 28 9 15 1012.0 1011.9 -
20/05:00am 21.1 - - - - SSW 11 22 6 12 1012.0 1011.9 -
20/04:30am 21.1 - - - - SSW 13 24 7 13 1011.9 1011.8 -
20/04:00am 21.2 - - - - SSW 13 22 7 12 1011.7 1011.6 -
20/03:30am 21.2 - - - - SSW 11 19 6 10 1011.4 1011.3 -
20/03:00am 21.2 - - - - SSW 9 19 5 10 1011.1 1011.0 -
20/02:30am 21.3 - - - - SSW 13 22 7 12 1011.6 1011.5 -
20/02:00am 21.5 - - - - SSW 13 22 7 12 1011.8 1011.7 -
20/01:30am 21.5 - - - - SSW 7 20 4 11 1012.1 1012.0 -
20/01:00am 21.8 - - - - SSW 11 20 6 11 1012.3 1012.2 -
20/12:30am 22.2 - - - - SSW 11 20 6 11 1012.6 1012.5 -
20/12:00am 22.3 - - - - SSW 7 15 4 8 1012.6 1012.5 -
 
Date/Time
WST
Temp
°C
App
Temp
°C
Dew
Point
°C
Rel
Hum
%
Delta-T
°C
Wind Press
QNH
hPa
Press
MSL
hPa
Rain since
9am
mm
Dir  Spd
km/h
Gust
km/h
Spd
kts
Gust
kts
19/11:30pm 22.4 - - - - SSW 9 17 5 9 1012.6 1012.5 -
19/11:00pm 22.5 - - - - SSW 11 20 6 11 1012.6 1012.5 -
19/10:30pm 22.7 - - - - SSW 13 22 7 12 1012.7 1012.6 -
19/10:00pm 23.1 - - - - SSW 11 22 6 12 1012.9 1012.8 -
19/09:30pm 23.3 - - - - SSW 9 20 5 11 1012.8 1012.7 -
19/09:00pm 23.8 - - - - SW 11 19 6 10 1012.5 1012.4 -
19/08:30pm 24.3 - - - - SW 11 17 6 9 1012.3 1012.2 -
19/08:00pm 24.0 - - - - WNW 6 9 3 5 1012.1 1012.0 -
19/07:30pm 24.1 - - - - NW 4 9 2 5 1011.8 1011.7 -
19/07:00pm 24.5 - - - - NW 4 6 2 3 1011.4 1011.3 -
19/06:30pm 25.2 - - - - NW 4 7 2 4 1011.2 1011.1 -
19/06:00pm 25.7 - - - - NW 4 9 2 5 1011.0 1010.9 -
19/05:30pm 25.6 - - - - NW 6 13 3 7 1011.0 1010.9 -
19/05:00pm 25.7 - - - - NW 7 11 4 6 1010.9 1010.8 -
19/04:30pm 26.5 - - - - NNW 7 11 4 6 1010.9 1010.8 -
19/04:00pm 26.8 - - - - NW 6 9 3 5 1010.9 1010.8 -
19/03:30pm 27.1 - - - - NW 4 9 2 5 1011.2 1011.1 -
19/03:00pm 27.8 - - - - NW 7 13 4 7 1011.4 1011.3 -
19/02:30pm 29.4 - - - - NW 4 6 2 3 1011.5 1011.4 -

Other Formats:

Comma delimited format used in spreadsheet applications
http://www.bom.gov.au/fwo/IDW60801/IDW60801.95605.axf

JavaScript Object Notation format (JSON) in row-major order
http://www.bom.gov.au/fwo/IDW60801/IDW60801.95605.json